sensor_id;sensor_type;location;lat;lon;timestamp;temperature;humidity
10062;DHT22;5070;52.382;5.270;2023-07-31T00:01:04;23.90;79.40
10062;DHT22;5070;52.382;5.270;2023-07-31T00:03:32;23.90;79.30
10062;DHT22;5070;52.382;5.270;2023-07-31T00:06:00;23.80;79.30
10062;DHT22;5070;52.382;5.270;2023-07-31T00:08:30;23.80;79.30
10062;DHT22;5070;52.382;5.270;2023-07-31T00:10:58;23.80;79.30
10062;DHT22;5070;52.382;5.270;2023-07-31T00:13:26;23.90;79.40
10062;DHT22;5070;52.382;5.270;2023-07-31T00:15:54;23.80;79.40
10062;DHT22;5070;52.382;5.270;2023-07-31T00:18:22;23.80;79.40
10062;DHT22;5070;52.382;5.270;2023-07-31T00:20:50;23.80;79.60
10062;DHT22;5070;52.382;5.270;2023-07-31T00:23:18;23.80;79.70
10062;DHT22;5070;52.382;5.270;2023-07-31T00:25:47;23.80;79.70
10062;DHT22;5070;52.382;5.270;2023-07-31T00:28:15;23.80;79.80
10062;DHT22;5070;52.382;5.270;2023-07-31T00:30:43;23.80;79.80
10062;DHT22;5070;52.382;5.270;2023-07-31T00:33:12;23.80;80.60
10062;DHT22;5070;52.382;5.270;2023-07-31T00:35:40;23.80;79.80
10062;DHT22;5070;52.382;5.270;2023-07-31T00:38:08;23.80;79.80
10062;DHT22;5070;52.382;5.270;2023-07-31T00:40:36;23.80;80.00
10062;DHT22;5070;52.382;5.270;2023-07-31T00:43:06;23.80;80.10
10062;DHT22;5070;52.382;5.270;2023-07-31T00:45:34;23.80;80.10
10062;DHT22;5070;52.382;5.270;2023-07-31T00:48:03;23.80;80.10
10062;DHT22;5070;52.382;5.270;2023-07-31T00:50:34;23.80;80.30
10062;DHT22;5070;52.382;5.270;2023-07-31T00:53:02;23.80;80.20
10062;DHT22;5070;52.382;5.270;2023-07-31T00:55:33;23.70;80.20
10062;DHT22;5070;52.382;5.270;2023-07-31T00:58:01;23.80;80.50
10062;DHT22;5070;52.382;5.270;2023-07-31T01:00:30;23.80;80.50
10062;DHT22;5070;52.382;5.270;2023-07-31T01:02:58;23.80;80.50
10062;DHT22;5070;52.382;5.270;2023-07-31T01:05:36;23.80;80.50
10062;DHT22;5070;52.382;5.270;2023-07-31T01:08:11;23.70;80.40
10062;DHT22;5070;52.382;5.270;2023-07-31T01:10:46;23.80;80.40
10062;DHT22;5070;52.382;5.270;2023-07-31T01:13:18;23.80;80.40
10062;DHT22;5070;52.382;5.270;2023-07-31T01:15:48;23.70;80.50
10062;DHT22;5070;52.382;5.270;2023-07-31T01:18:16;23.70;80.50
10062;DHT22;5070;52.382;5.270;2023-07-31T01:21:03;23.70;80.50
10062;DHT22;5070;52.382;5.270;2023-07-31T01:23:56;23.70;80.50
10062;DHT22;5070;52.382;5.270;2023-07-31T01:26:33;23.70;80.50
10062;DHT22;5070;52.382;5.270;2023-07-31T01:29:06;23.70;80.60
10062;DHT22;5070;52.382;5.270;2023-07-31T01:31:38;23.70;80.50
10062;DHT22;5070;52.382;5.270;2023-07-31T01:34:11;23.70;81.10
10062;DHT22;5070;52.382;5.270;2023-07-31T01:36:42;23.70;80.50
10062;DHT22;5070;52.382;5.270;2023-07-31T01:39:10;23.70;80.50
10062;DHT22;5070;52.382;5.270;2023-07-31T01:41:39;23.70;80.50
10062;DHT22;5070;52.382;5.270;2023-07-31T01:44:07;23.70;80.70
10062;DHT22;5070;52.382;5.270;2023-07-31T01:46:35;23.70;80.50
10062;DHT22;5070;52.382;5.270;2023-07-31T01:49:05;23.70;81.10
10062;DHT22;5070;52.382;5.270;2023-07-31T01:51:33;23.70;80.80
10062;DHT22;5070;52.382;5.270;2023-07-31T01:54:02;23.70;81.30
10062;DHT22;5070;52.382;5.270;2023-07-31T01:56:30;23.70;81.30
10062;DHT22;5070;52.382;5.270;2023-07-31T01:59:00;23.70;81.30
10062;DHT22;5070;52.382;5.270;2023-07-31T02:01:28;23.70;81.20
10062;DHT22;5070;52.382;5.270;2023-07-31T02:03:56;23.70;81.00
10062;DHT22;5070;52.382;5.270;2023-07-31T02:06:24;23.70;81.10
10062;DHT22;5070;52.382;5.270;2023-07-31T02:08:52;23.70;81.00
10062;DHT22;5070;52.382;5.270;2023-07-31T02:11:20;23.70;81.00
10062;DHT22;5070;52.382;5.270;2023-07-31T02:13:49;23.70;80.90
10062;DHT22;5070;52.382;5.270;2023-07-31T02:16:18;23.70;81.10
10062;DHT22;5070;52.382;5.270;2023-07-31T02:18:46;23.70;81.30
10062;DHT22;5070;52.382;5.270;2023-07-31T02:21:14;23.70;81.50
10062;DHT22;5070;52.382;5.270;2023-07-31T02:23:43;23.70;81.70
10062;DHT22;5070;52.382;5.270;2023-07-31T02:26:10;23.70;81.70
10062;DHT22;5070;52.382;5.270;2023-07-31T02:28:39;23.70;81.50
10062;DHT22;5070;52.382;5.270;2023-07-31T02:31:10;23.70;81.80
10062;DHT22;5070;52.382;5.270;2023-07-31T02:33:40;23.70;81.60
10062;DHT22;5070;52.382;5.270;2023-07-31T02:36:09;23.70;81.50
10062;DHT22;5070;52.382;5.270;2023-07-31T02:38:37;23.70;81.60
10062;DHT22;5070;52.382;5.270;2023-07-31T02:41:06;23.70;81.30
10062;DHT22;5070;52.382;5.270;2023-07-31T02:43:34;23.70;81.60
10062;DHT22;5070;52.382;5.270;2023-07-31T02:46:02;23.70;81.70
10062;DHT22;5070;52.382;5.270;2023-07-31T02:48:30;23.70;81.80
10062;DHT22;5070;52.382;5.270;2023-07-31T02:50:59;23.70;81.50
10062;DHT22;5070;52.382;5.270;2023-07-31T02:53:27;23.70;81.20
10062;DHT22;5070;52.382;5.270;2023-07-31T02:55:55;23.70;81.50
10062;DHT22;5070;52.382;5.270;2023-07-31T02:58:23;23.70;81.70
10062;DHT22;5070;52.382;5.270;2023-07-31T03:00:52;23.60;81.70
10062;DHT22;5070;52.382;5.270;2023-07-31T03:03:20;23.60;81.50
10062;DHT22;5070;52.382;5.270;2023-07-31T03:05:48;23.60;81.60
10062;DHT22;5070;52.382;5.270;2023-07-31T03:08:17;23.60;81.40
10062;DHT22;5070;52.382;5.270;2023-07-31T03:10:45;23.60;81.30
10062;DHT22;5070;52.382;5.270;2023-07-31T03:13:13;23.60;81.30
10062;DHT22;5070;52.382;5.270;2023-07-31T03:15:42;23.60;81.40
10062;DHT22;5070;52.382;5.270;2023-07-31T03:18:10;23.60;81.40
10062;DHT22;5070;52.382;5.270;2023-07-31T03:20:42;23.60;81.30
10062;DHT22;5070;52.382;5.270;2023-07-31T03:23:10;23.60;81.30
10062;DHT22;5070;52.382;5.270;2023-07-31T03:25:41;23.60;81.90
10062;DHT22;5070;52.382;5.270;2023-07-31T03:28:22;23.60;81.30
10062;DHT22;5070;52.382;5.270;2023-07-31T03:30:51;23.60;81.40
10062;DHT22;5070;52.382;5.270;2023-07-31T03:33:19;23.60;81.30
10062;DHT22;5070;52.382;5.270;2023-07-31T03:35:47;23.60;81.30
10062;DHT22;5070;52.382;5.270;2023-07-31T03:38:15;23.60;81.20
10062;DHT22;5070;52.382;5.270;2023-07-31T03:40:44;23.60;81.20
10062;DHT22;5070;52.382;5.270;2023-07-31T03:43:13;23.60;81.20
10062;DHT22;5070;52.382;5.270;2023-07-31T03:45:42;23.60;81.30
10062;DHT22;5070;52.382;5.270;2023-07-31T03:48:11;23.60;81.20
10062;DHT22;5070;52.382;5.270;2023-07-31T03:50:39;23.60;81.30
10062;DHT22;5070;52.382;5.270;2023-07-31T03:53:07;23.60;82.00
10062;DHT22;5070;52.382;5.270;2023-07-31T03:55:35;23.60;81.10
10062;DHT22;5070;52.382;5.270;2023-07-31T03:58:04;23.60;81.20
10062;DHT22;5070;52.382;5.270;2023-07-31T04:00:32;23.60;81.10
10062;DHT22;5070;52.382;5.270;2023-07-31T04:03:01;23.60;81.10
10062;DHT22;5070;52.382;5.270;2023-07-31T04:05:30;23.60;81.20
10062;DHT22;5070;52.382;5.270;2023-07-31T04:07:58;23.60;82.00
10062;DHT22;5070;52.382;5.270;2023-07-31T04:10:26;23.60;81.10
10062;DHT22;5070;52.382;5.270;2023-07-31T04:12:55;23.60;81.10
10062;DHT22;5070;52.382;5.270;2023-07-31T04:15:24;23.60;81.10
10062;DHT22;5070;52.382;5.270;2023-07-31T04:17:52;23.60;81.20
10062;DHT22;5070;52.382;5.270;2023-07-31T04:20:20;23.60;81.20
10062;DHT22;5070;52.382;5.270;2023-07-31T04:22:49;23.60;81.30
10062;DHT22;5070;52.382;5.270;2023-07-31T04:25:17;23.60;81.10
10062;DHT22;5070;52.382;5.270;2023-07-31T04:27:45;23.60;81.10
10062;DHT22;5070;52.382;5.270;2023-07-31T04:30:13;23.60;81.10
10062;DHT22;5070;52.382;5.270;2023-07-31T04:32:42;23.60;81.20
10062;DHT22;5070;52.382;5.270;2023-07-31T04:35:10;23.60;81.10
10062;DHT22;5070;52.382;5.270;2023-07-31T04:37:38;23.50;81.10
10062;DHT22;5070;52.382;5.270;2023-07-31T04:40:07;23.60;81.10
10062;DHT22;5070;52.382;5.270;2023-07-31T04:42:36;23.50;81.10
10062;DHT22;5070;52.382;5.270;2023-07-31T04:45:08;23.50;81.20
10062;DHT22;5070;52.382;5.270;2023-07-31T04:47:36;23.50;81.30
10062;DHT22;5070;52.382;5.270;2023-07-31T04:50:07;23.50;81.10
10062;DHT22;5070;52.382;5.270;2023-07-31T04:52:35;23.50;81.10
10062;DHT22;5070;52.382;5.270;2023-07-31T04:55:03;23.50;81.10
10062;DHT22;5070;52.382;5.270;2023-07-31T04:57:31;23.50;81.10
10062;DHT22;5070;52.382;5.270;2023-07-31T05:00:00;23.50;81.10
10062;DHT22;5070;52.382;5.270;2023-07-31T05:02:28;23.50;81.10
10062;DHT22;5070;52.382;5.270;2023-07-31T05:04:56;23.50;81.10
10062;DHT22;5070;52.382;5.270;2023-07-31T05:07:25;23.50;81.00
10062;DHT22;5070;52.382;5.270;2023-07-31T05:09:53;23.50;81.00
10062;DHT22;5070;52.382;5.270;2023-07-31T05:12:24;23.50;81.70
10062;DHT22;5070;52.382;5.270;2023-07-31T05:14:52;23.50;81.00
10062;DHT22;5070;52.382;5.270;2023-07-31T05:17:20;23.50;81.70
10062;DHT22;5070;52.382;5.270;2023-07-31T05:19:48;23.50;80.90
10062;DHT22;5070;52.382;5.270;2023-07-31T05:22:16;23.50;80.90
10062;DHT22;5070;52.382;5.270;2023-07-31T05:24:46;23.50;81.00
10062;DHT22;5070;52.382;5.270;2023-07-31T05:27:14;23.50;80.90
10062;DHT22;5070;52.382;5.270;2023-07-31T05:29:45;23.50;81.00
10062;DHT22;5070;52.382;5.270;2023-07-31T05:32:13;23.50;80.90
10062;DHT22;5070;52.382;5.270;2023-07-31T05:34:41;23.50;80.90
10062;DHT22;5070;52.382;5.270;2023-07-31T05:37:10;23.50;81.00
10062;DHT22;5070;52.382;5.270;2023-07-31T05:39:38;23.50;81.10
10062;DHT22;5070;52.382;5.270;2023-07-31T05:42:07;23.50;81.10
10062;DHT22;5070;52.382;5.270;2023-07-31T05:44:35;23.50;81.30
10062;DHT22;5070;52.382;5.270;2023-07-31T05:47:04;23.50;81.30
10062;DHT22;5070;52.382;5.270;2023-07-31T05:49:32;23.50;81.20
10062;DHT22;5070;52.382;5.270;2023-07-31T05:52:00;23.50;81.00
10062;DHT22;5070;52.382;5.270;2023-07-31T05:54:28;23.50;81.10
10062;DHT22;5070;52.382;5.270;2023-07-31T05:56:56;23.50;81.00
10062;DHT22;5070;52.382;5.270;2023-07-31T05:59:26;23.50;81.20
10062;DHT22;5070;52.382;5.270;2023-07-31T06:01:54;23.50;81.10
10062;DHT22;5070;52.382;5.270;2023-07-31T06:04:22;23.50;81.30
10062;DHT22;5070;52.382;5.270;2023-07-31T06:06:52;23.50;81.40
10062;DHT22;5070;52.382;5.270;2023-07-31T06:09:20;23.50;81.30
10062;DHT22;5070;52.382;5.270;2023-07-31T06:11:48;23.50;81.40
10062;DHT22;5070;52.382;5.270;2023-07-31T06:14:16;23.50;81.40
10062;DHT22;5070;52.382;5.270;2023-07-31T06:16:46;23.40;81.20
10062;DHT22;5070;52.382;5.270;2023-07-31T06:19:14;23.40;81.90
10062;DHT22;5070;52.382;5.270;2023-07-31T06:21:42;23.50;81.10
10062;DHT22;5070;52.382;5.270;2023-07-31T06:24:10;23.50;81.10
10062;DHT22;5070;52.382;5.270;2023-07-31T06:26:39;23.50;81.20
10062;DHT22;5070;52.382;5.270;2023-07-31T06:29:08;23.50;81.20
10062;DHT22;5070;52.382;5.270;2023-07-31T06:31:37;23.50;81.30
10062;DHT22;5070;52.382;5.270;2023-07-31T06:34:06;23.40;81.30
10062;DHT22;5070;52.382;5.270;2023-07-31T06:36:34;23.40;81.10
10062;DHT22;5070;52.382;5.270;2023-07-31T06:39:03;23.40;81.30
10062;DHT22;5070;52.382;5.270;2023-07-31T06:41:32;23.40;80.90
10062;DHT22;5070;52.382;5.270;2023-07-31T06:44:05;23.40;80.90
10062;DHT22;5070;52.382;5.270;2023-07-31T06:46:33;23.40;81.10
10062;DHT22;5070;52.382;5.270;2023-07-31T06:49:03;23.40;81.30
10062;DHT22;5070;52.382;5.270;2023-07-31T06:51:36;23.50;81.50
10062;DHT22;5070;52.382;5.270;2023-07-31T06:54:05;23.50;81.40
10062;DHT22;5070;52.382;5.270;2023-07-31T06:56:33;23.50;81.60
10062;DHT22;5070;52.382;5.270;2023-07-31T06:59:04;23.40;81.80
10062;DHT22;5070;52.382;5.270;2023-07-31T07:01:32;23.40;81.60
10062;DHT22;5070;52.382;5.270;2023-07-31T07:04:00;23.50;81.40
10062;DHT22;5070;52.382;5.270;2023-07-31T07:06:28;23.50;81.30
10062;DHT22;5070;52.382;5.270;2023-07-31T07:08:58;23.50;81.70
10062;DHT22;5070;52.382;5.270;2023-07-31T07:11:26;23.50;81.90
10062;DHT22;5070;52.382;5.270;2023-07-31T07:13:54;23.50;81.90
10062;DHT22;5070;52.382;5.270;2023-07-31T07:16:22;23.50;82.50
10062;DHT22;5070;52.382;5.270;2023-07-31T07:18:50;23.50;82.50
10062;DHT22;5070;52.382;5.270;2023-07-31T07:21:30;23.50;82.40
10062;DHT22;5070;52.382;5.270;2023-07-31T07:24:00;23.50;82.40
10062;DHT22;5070;52.382;5.270;2023-07-31T07:26:28;23.50;82.40
10062;DHT22;5070;52.382;5.270;2023-07-31T07:28:56;23.40;82.30
10062;DHT22;5070;52.382;5.270;2023-07-31T07:31:27;23.50;82.40
10062;DHT22;5070;52.382;5.270;2023-07-31T07:33:55;23.50;82.60
10062;DHT22;5070;52.382;5.270;2023-07-31T07:36:24;23.50;82.50
10062;DHT22;5070;52.382;5.270;2023-07-31T07:38:52;23.50;82.30
10062;DHT22;5070;52.382;5.270;2023-07-31T07:41:21;23.40;82.10
10062;DHT22;5070;52.382;5.270;2023-07-31T07:43:49;23.50;82.40
10062;DHT22;5070;52.382;5.270;2023-07-31T07:46:18;23.50;82.20
10062;DHT22;5070;52.382;5.270;2023-07-31T07:48:46;23.50;82.10
10062;DHT22;5070;52.382;5.270;2023-07-31T07:51:14;23.50;82.40
10062;DHT22;5070;52.382;5.270;2023-07-31T07:53:42;23.40;82.30
10062;DHT22;5070;52.382;5.270;2023-07-31T07:56:10;23.50;82.10
10062;DHT22;5070;52.382;5.270;2023-07-31T07:58:39;23.50;82.70
10062;DHT22;5070;52.382;5.270;2023-07-31T08:01:08;23.50;82.00
10062;DHT22;5070;52.382;5.270;2023-07-31T08:03:36;23.50;82.10
10062;DHT22;5070;52.382;5.270;2023-07-31T08:06:04;23.50;82.00
10062;DHT22;5070;52.382;5.270;2023-07-31T08:08:32;23.50;82.20
10062;DHT22;5070;52.382;5.270;2023-07-31T08:11:00;23.50;82.50
10062;DHT22;5070;52.382;5.270;2023-07-31T08:13:28;23.50;82.30
10062;DHT22;5070;52.382;5.270;2023-07-31T08:15:58;23.50;82.00
10062;DHT22;5070;52.382;5.270;2023-07-31T08:18:26;23.50;82.00
10062;DHT22;5070;52.382;5.270;2023-07-31T08:20:54;23.50;81.80
10062;DHT22;5070;52.382;5.270;2023-07-31T08:23:22;23.50;82.60
10062;DHT22;5070;52.382;5.270;2023-07-31T08:25:50;23.50;82.50
10062;DHT22;5070;52.382;5.270;2023-07-31T08:28:18;23.50;82.30
10062;DHT22;5070;52.382;5.270;2023-07-31T08:30:46;23.50;82.10
10062;DHT22;5070;52.382;5.270;2023-07-31T08:33:16;23.50;82.10
10062;DHT22;5070;52.382;5.270;2023-07-31T08:35:44;23.50;82.50
10062;DHT22;5070;52.382;5.270;2023-07-31T08:38:12;23.50;81.90
10062;DHT22;5070;52.382;5.270;2023-07-31T08:40:40;23.50;82.30
10062;DHT22;5070;52.382;5.270;2023-07-31T08:43:09;23.50;82.40
10062;DHT22;5070;52.382;5.270;2023-07-31T08:45:37;23.50;82.00
10062;DHT22;5070;52.382;5.270;2023-07-31T08:48:06;23.50;82.30
10062;DHT22;5070;52.382;5.270;2023-07-31T08:50:36;23.50;82.20
10062;DHT22;5070;52.382;5.270;2023-07-31T08:53:05;23.50;82.00
10062;DHT22;5070;52.382;5.270;2023-07-31T08:55:33;23.50;82.10
10062;DHT22;5070;52.382;5.270;2023-07-31T08:58:03;23.50;82.00
10062;DHT22;5070;52.382;5.270;2023-07-31T09:00:32;23.50;82.00
10062;DHT22;5070;52.382;5.270;2023-07-31T09:03:02;23.50;82.20
10062;DHT22;5070;52.382;5.270;2023-07-31T09:05:31;23.60;82.20
10062;DHT22;5070;52.382;5.270;2023-07-31T09:08:02;23.50;81.80
10062;DHT22;5070;52.382;5.270;2023-07-31T09:10:32;23.60;82.40
10062;DHT22;5070;52.382;5.270;2023-07-31T09:13:00;23.60;82.30
10062;DHT22;5070;52.382;5.270;2023-07-31T09:15:29;23.60;82.20
10062;DHT22;5070;52.382;5.270;2023-07-31T09:18:07;23.60;82.70
10062;DHT22;5070;52.382;5.270;2023-07-31T09:20:35;23.60;82.90
10062;DHT22;5070;52.382;5.270;2023-07-31T09:23:09;23.60;83.40
10062;DHT22;5070;52.382;5.270;2023-07-31T09:25:39;23.60;84.40
10062;DHT22;5070;52.382;5.270;2023-07-31T09:28:08;23.60;83.40
10062;DHT22;5070;52.382;5.270;2023-07-31T09:30:45;23.60;83.20
10062;DHT22;5070;52.382;5.270;2023-07-31T09:33:15;23.60;83.50
10062;DHT22;5070;52.382;5.270;2023-07-31T09:35:43;23.60;83.40
10062;DHT22;5070;52.382;5.270;2023-07-31T09:38:14;23.60;83.30
10062;DHT22;5070;52.382;5.270;2023-07-31T09:40:43;23.60;83.90
10062;DHT22;5070;52.382;5.270;2023-07-31T09:43:13;23.60;83.70
10062;DHT22;5070;52.382;5.270;2023-07-31T09:45:45;23.60;83.90
10062;DHT22;5070;52.382;5.270;2023-07-31T09:48:15;23.60;84.20
10062;DHT22;5070;52.382;5.270;2023-07-31T09:50:44;23.60;83.90
10062;DHT22;5070;52.382;5.270;2023-07-31T09:53:14;23.60;84.00
10062;DHT22;5070;52.382;5.270;2023-07-31T09:55:43;23.60;84.10
10062;DHT22;5070;52.382;5.270;2023-07-31T09:58:13;23.60;84.10
10062;DHT22;5070;52.382;5.270;2023-07-31T10:00:41;23.60;84.60
10062;DHT22;5070;52.382;5.270;2023-07-31T10:03:10;23.60;83.80
10062;DHT22;5070;52.382;5.270;2023-07-31T10:05:42;23.60;83.60
10062;DHT22;5070;52.382;5.270;2023-07-31T10:08:12;23.60;83.30
10062;DHT22;5070;52.382;5.270;2023-07-31T10:10:43;23.60;83.70
10062;DHT22;5070;52.382;5.270;2023-07-31T10:13:13;23.60;83.60
10062;DHT22;5070;52.382;5.270;2023-07-31T10:15:42;23.60;84.00
10062;DHT22;5070;52.382;5.270;2023-07-31T10:18:11;23.60;84.10
10062;DHT22;5070;52.382;5.270;2023-07-31T10:20:40;23.60;83.70
10062;DHT22;5070;52.382;5.270;2023-07-31T10:23:12;23.60;83.80
10062;DHT22;5070;52.382;5.270;2023-07-31T10:25:41;23.60;84.10
10062;DHT22;5070;52.382;5.270;2023-07-31T10:28:11;23.60;83.90
10062;DHT22;5070;52.382;5.270;2023-07-31T10:30:40;23.60;83.90
10062;DHT22;5070;52.382;5.270;2023-07-31T10:33:08;23.60;83.70
10062;DHT22;5070;52.382;5.270;2023-07-31T10:35:37;23.60;83.70
10062;DHT22;5070;52.382;5.270;2023-07-31T10:38:11;23.60;83.90
10062;DHT22;5070;52.382;5.270;2023-07-31T10:40:40;23.60;84.30
10062;DHT22;5070;52.382;5.270;2023-07-31T10:43:08;23.60;83.70
10062;DHT22;5070;52.382;5.270;2023-07-31T10:45:41;23.60;83.60
10062;DHT22;5070;52.382;5.270;2023-07-31T10:48:13;23.60;83.60
10062;DHT22;5070;52.382;5.270;2023-07-31T10:50:47;23.60;83.70
10062;DHT22;5070;52.382;5.270;2023-07-31T10:53:23;23.60;84.60
10062;DHT22;5070;52.382;5.270;2023-07-31T10:55:52;23.60;85.10
10062;DHT22;5070;52.382;5.270;2023-07-31T10:58:21;23.60;84.00
10062;DHT22;5070;52.382;5.270;2023-07-31T11:00:55;23.60;84.00
10062;DHT22;5070;52.382;5.270;2023-07-31T11:03:26;23.60;84.10
10062;DHT22;5070;52.382;5.270;2023-07-31T11:06:00;23.60;84.10
10062;DHT22;5070;52.382;5.270;2023-07-31T11:08:31;23.60;83.60
10062;DHT22;5070;52.382;5.270;2023-07-31T11:11:07;23.60;83.70
10062;DHT22;5070;52.382;5.270;2023-07-31T11:13:41;23.70;84.10
10062;DHT22;5070;52.382;5.270;2023-07-31T11:16:11;23.60;84.30
10062;DHT22;5070;52.382;5.270;2023-07-31T11:18:40;23.70;84.60
10062;DHT22;5070;52.382;5.270;2023-07-31T11:21:12;23.60;84.10
10062;DHT22;5070;52.382;5.270;2023-07-31T11:23:41;23.70;84.10
10062;DHT22;5070;52.382;5.270;2023-07-31T11:26:10;23.60;83.40
10062;DHT22;5070;52.382;5.270;2023-07-31T11:28:39;23.70;83.30
10062;DHT22;5070;52.382;5.270;2023-07-31T11:31:10;23.70;83.50
10062;DHT22;5070;52.382;5.270;2023-07-31T11:33:39;23.70;83.90
10062;DHT22;5070;52.382;5.270;2023-07-31T11:36:14;23.70;83.90
10062;DHT22;5070;52.382;5.270;2023-07-31T11:38:42;23.70;84.00
10062;DHT22;5070;52.382;5.270;2023-07-31T11:41:10;23.70;83.90
10062;DHT22;5070;52.382;5.270;2023-07-31T11:43:41;23.70;85.00
10062;DHT22;5070;52.382;5.270;2023-07-31T11:46:10;23.70;84.10
10062;DHT22;5070;52.382;5.270;2023-07-31T11:48:39;23.70;84.20
10062;DHT22;5070;52.382;5.270;2023-07-31T11:51:10;23.70;85.00
10062;DHT22;5070;52.382;5.270;2023-07-31T11:53:41;23.70;84.00
10062;DHT22;5070;52.382;5.270;2023-07-31T11:56:13;23.70;84.00
10062;DHT22;5070;52.382;5.270;2023-07-31T11:58:42;23.70;83.70
10062;DHT22;5070;52.382;5.270;2023-07-31T12:01:14;23.70;84.20
10062;DHT22;5070;52.382;5.270;2023-07-31T12:03:45;23.70;84.30
10062;DHT22;5070;52.382;5.270;2023-07-31T12:06:13;23.70;84.20
10062;DHT22;5070;52.382;5.270;2023-07-31T12:08:41;23.70;84.00
10062;DHT22;5070;52.382;5.270;2023-07-31T12:11:10;23.70;83.90
10062;DHT22;5070;52.382;5.270;2023-07-31T12:13:38;23.70;84.10
10062;DHT22;5070;52.382;5.270;2023-07-31T12:16:06;23.70;84.30
10062;DHT22;5070;52.382;5.270;2023-07-31T12:18:36;23.70;84.00
10062;DHT22;5070;52.382;5.270;2023-07-31T12:21:06;23.70;84.50
10062;DHT22;5070;52.382;5.270;2023-07-31T12:23:36;23.70;84.40
10062;DHT22;5070;52.382;5.270;2023-07-31T12:26:05;23.70;84.50
10062;DHT22;5070;52.382;5.270;2023-07-31T12:28:37;23.70;84.60
10062;DHT22;5070;52.382;5.270;2023-07-31T12:31:05;23.70;84.70
10062;DHT22;5070;52.382;5.270;2023-07-31T12:33:36;23.70;85.00
10062;DHT22;5070;52.382;5.270;2023-07-31T12:36:08;23.70;85.20
10062;DHT22;5070;52.382;5.270;2023-07-31T12:38:37;23.70;84.60
10062;DHT22;5070;52.382;5.270;2023-07-31T12:41:05;23.70;84.50
10062;DHT22;5070;52.382;5.270;2023-07-31T12:43:34;23.70;85.10
10062;DHT22;5070;52.382;5.270;2023-07-31T12:46:03;23.80;85.40
10062;DHT22;5070;52.382;5.270;2023-07-31T12:48:31;23.80;85.10
10062;DHT22;5070;52.382;5.270;2023-07-31T12:51:01;23.80;84.60
10062;DHT22;5070;52.382;5.270;2023-07-31T12:53:30;23.70;84.80
10062;DHT22;5070;52.382;5.270;2023-07-31T12:55:58;23.80;85.50
10062;DHT22;5070;52.382;5.270;2023-07-31T12:58:28;23.70;84.70
10062;DHT22;5070;52.382;5.270;2023-07-31T13:00:58;23.70;84.70
10062;DHT22;5070;52.382;5.270;2023-07-31T13:03:26;23.80;84.60
10062;DHT22;5070;52.382;5.270;2023-07-31T13:05:55;23.80;84.60
10062;DHT22;5070;52.382;5.270;2023-07-31T13:08:24;23.80;84.70
10062;DHT22;5070;52.382;5.270;2023-07-31T13:10:52;23.80;83.30
10062;DHT22;5070;52.382;5.270;2023-07-31T13:13:20;23.70;81.90
10062;DHT22;5070;52.382;5.270;2023-07-31T13:15:49;23.70;85.40
10062;DHT22;5070;52.382;5.270;2023-07-31T13:18:17;23.80;87.20
10062;DHT22;5070;52.382;5.270;2023-07-31T13:20:45;23.70;86.20
10062;DHT22;5070;52.382;5.270;2023-07-31T13:23:13;23.70;85.80
10062;DHT22;5070;52.382;5.270;2023-07-31T13:25:43;23.80;86.60
10062;DHT22;5070;52.382;5.270;2023-07-31T13:28:11;23.70;87.10
10062;DHT22;5070;52.382;5.270;2023-07-31T13:30:39;23.80;87.30
10062;DHT22;5070;52.382;5.270;2023-07-31T13:33:07;23.80;87.30
10062;DHT22;5070;52.382;5.270;2023-07-31T13:35:51;23.70;87.50
10062;DHT22;5070;52.382;5.270;2023-07-31T13:38:19;23.80;87.80
10062;DHT22;5070;52.382;5.270;2023-07-31T13:40:48;23.80;87.70
10062;DHT22;5070;52.382;5.270;2023-07-31T13:43:16;23.80;87.90
10062;DHT22;5070;52.382;5.270;2023-07-31T13:45:44;23.80;88.00
10062;DHT22;5070;52.382;5.270;2023-07-31T13:48:12;23.80;88.00
10062;DHT22;5070;52.382;5.270;2023-07-31T13:50:40;23.80;88.10
10062;DHT22;5070;52.382;5.270;2023-07-31T13:53:09;23.80;88.10
10062;DHT22;5070;52.382;5.270;2023-07-31T13:55:37;23.80;87.70
10062;DHT22;5070;52.382;5.270;2023-07-31T13:58:06;23.80;87.90
10062;DHT22;5070;52.382;5.270;2023-07-31T14:00:34;23.80;87.90
10062;DHT22;5070;52.382;5.270;2023-07-31T14:03:03;23.80;87.00
10062;DHT22;5070;52.382;5.270;2023-07-31T14:05:31;23.80;86.80
10062;DHT22;5070;52.382;5.270;2023-07-31T14:07:59;23.80;86.60
10062;DHT22;5070;52.382;5.270;2023-07-31T14:10:27;23.80;86.70
10062;DHT22;5070;52.382;5.270;2023-07-31T14:12:55;23.70;86.60
10062;DHT22;5070;52.382;5.270;2023-07-31T14:15:25;23.80;86.70
10062;DHT22;5070;52.382;5.270;2023-07-31T14:17:53;23.80;86.90
10062;DHT22;5070;52.382;5.270;2023-07-31T14:20:24;23.80;87.10
10062;DHT22;5070;52.382;5.270;2023-07-31T14:22:52;23.70;86.70
10062;DHT22;5070;52.382;5.270;2023-07-31T14:25:20;23.80;86.70
10062;DHT22;5070;52.382;5.270;2023-07-31T14:27:48;23.80;85.80
10062;DHT22;5070;52.382;5.270;2023-07-31T14:30:16;23.80;86.50
10062;DHT22;5070;52.382;5.270;2023-07-31T14:32:46;23.80;86.60
10062;DHT22;5070;52.382;5.270;2023-07-31T14:35:14;23.80;86.10
10062;DHT22;5070;52.382;5.270;2023-07-31T14:37:43;23.70;86.30
10062;DHT22;5070;52.382;5.270;2023-07-31T14:40:12;23.80;86.30
10062;DHT22;5070;52.382;5.270;2023-07-31T14:42:41;23.70;86.20
10062;DHT22;5070;52.382;5.270;2023-07-31T14:45:09;23.70;86.50
10062;DHT22;5070;52.382;5.270;2023-07-31T14:47:38;23.70;86.10
10062;DHT22;5070;52.382;5.270;2023-07-31T14:50:08;23.70;85.90
10062;DHT22;5070;52.382;5.270;2023-07-31T14:52:37;23.80;86.20
10062;DHT22;5070;52.382;5.270;2023-07-31T14:55:05;23.80;85.80
10062;DHT22;5070;52.382;5.270;2023-07-31T14:57:34;23.80;86.20
10062;DHT22;5070;52.382;5.270;2023-07-31T15:00:02;23.70;86.10
10062;DHT22;5070;52.382;5.270;2023-07-31T15:02:34;23.80;86.90
10062;DHT22;5070;52.382;5.270;2023-07-31T15:05:02;23.80;86.50
10062;DHT22;5070;52.382;5.270;2023-07-31T15:07:32;23.80;86.10
10062;DHT22;5070;52.382;5.270;2023-07-31T15:10:00;23.80;86.50
10062;DHT22;5070;52.382;5.270;2023-07-31T15:12:29;23.70;86.00
10062;DHT22;5070;52.382;5.270;2023-07-31T15:14:57;23.80;86.20
10062;DHT22;5070;52.382;5.270;2023-07-31T15:17:25;23.80;87.10
10062;DHT22;5070;52.382;5.270;2023-07-31T15:19:53;23.80;86.20
10062;DHT22;5070;52.382;5.270;2023-07-31T15:22:21;23.70;86.70
10062;DHT22;5070;52.382;5.270;2023-07-31T15:24:50;23.70;86.20
10062;DHT22;5070;52.382;5.270;2023-07-31T15:27:18;23.70;85.80
10062;DHT22;5070;52.382;5.270;2023-07-31T15:29:46;23.80;85.70
10062;DHT22;5070;52.382;5.270;2023-07-31T15:32:15;23.70;85.80
10062;DHT22;5070;52.382;5.270;2023-07-31T15:34:44;23.70;86.10
10062;DHT22;5070;52.382;5.270;2023-07-31T15:37:12;23.70;86.40
10062;DHT22;5070;52.382;5.270;2023-07-31T15:39:41;23.70;86.80
10062;DHT22;5070;52.382;5.270;2023-07-31T15:42:10;23.70;86.90
10062;DHT22;5070;52.382;5.270;2023-07-31T15:44:38;23.70;86.70
10062;DHT22;5070;52.382;5.270;2023-07-31T15:47:06;23.70;86.90
10062;DHT22;5070;52.382;5.270;2023-07-31T15:49:34;23.70;87.30
10062;DHT22;5070;52.382;5.270;2023-07-31T15:52:03;23.70;87.00
10062;DHT22;5070;52.382;5.270;2023-07-31T15:54:32;23.70;87.20
10062;DHT22;5070;52.382;5.270;2023-07-31T15:57:00;23.70;87.80